RYR58UE EGSS-EKCH
Flight info
| Callsign | RYR58UE |
|---|---|
| Flight time | 1h 25m |
| Altitude | 39000 |
| Route | CLN P44 SOMVA DCT MAVAS DCT TALSA P729 TUDLO |
| Aircraft | B38M/M-SDE1FGHILORVWXY/HB1 |
Departure
| Time | 2026-04-21 17:19 |
|---|---|
| Airport | London Stansted Airport (EGSS) |
Arrival
| Time | 2026-04-21 18:45 |
|---|---|
| Airport | Copenhagen Kastrup Airport (EKCH) |
| Time | Latitude | Longitude | Altitude | Speed | Heading |
|---|---|---|---|---|---|
| 2026-04-21 16:37 | 51.89110 | 0.25576 | 360 ft | 0 kts | 42° |
| 2026-04-21 17:06 | 51.89105 | 0.25569 | 355 ft | 4 kts | 50° |
| 2026-04-21 17:06 | 51.89103 | 0.25548 | 364 ft | 4 kts | 114° |
| 2026-04-21 17:06 | 51.89103 | 0.25525 | 364 ft | 3 kts | 59° |
| 2026-04-21 17:07 | 51.89088 | 0.25503 | 361 ft | 4 kts | 353° |
| 2026-04-21 17:07 | 51.89066 | 0.25522 | 359 ft | 4 kts | 316° |
| 2026-04-21 17:07 | 51.89060 | 0.25532 | 364 ft | 1 kts | 314° |
| 2026-04-21 17:12 | 51.89060 | 0.25531 | 364 ft | 1 kts | 314° |
| 2026-04-21 17:12 | 51.89070 | 0.25514 | 360 ft | 4 kts | 314° |
| 2026-04-21 17:13 | 51.89094 | 0.25474 | 362 ft | 6 kts | 314° |
| 2026-04-21 17:13 | 51.89129 | 0.25414 | 358 ft | 9 kts | 312° |
| 2026-04-21 17:13 | 51.89173 | 0.25328 | 355 ft | 11 kts | 300° |
| 2026-04-21 17:13 | 51.89217 | 0.25213 | 355 ft | 13 kts | 311° |
| 2026-04-21 17:14 | 51.89244 | 0.25145 | 358 ft | 6 kts | 276° |
| 2026-04-21 17:14 | 51.89223 | 0.25067 | 363 ft | 11 kts | 239° |
| 2026-04-21 17:14 | 51.89141 | 0.24927 | 355 ft | 22 kts | 221° |
| 2026-04-21 17:14 | 51.89019 | 0.24740 | 364 ft | 25 kts | 223° |
| 2026-04-21 17:15 | 51.88884 | 0.24540 | 360 ft | 27 kts | 223° |
| 2026-04-21 17:15 | 51.88732 | 0.24316 | 352 ft | 32 kts | 222° |
| 2026-04-21 17:15 | 51.88563 | 0.24060 | 344 ft | 34 kts | 223° |
| 2026-04-21 17:15 | 51.88385 | 0.23792 | 348 ft | 35 kts | 223° |
| 2026-04-21 17:16 | 51.88202 | 0.23518 | 347 ft | 37 kts | 222° |
| 2026-04-21 17:16 | 51.88007 | 0.23226 | 337 ft | 40 kts | 223° |
| 2026-04-21 17:16 | 51.87804 | 0.22922 | 347 ft | 40 kts | 223° |
| 2026-04-21 17:16 | 51.87597 | 0.22611 | 337 ft | 42 kts | 223° |
| 2026-04-21 17:17 | 51.87522 | 0.22442 | 333 ft | 11 kts | 288° |
| 2026-04-21 17:17 | 51.87574 | 0.22334 | 326 ft | 11 kts | 313° |
| 2026-04-21 17:17 | 51.87647 | 0.22260 | 326 ft | 14 kts | 353° |
| 2026-04-21 17:17 | 51.87723 | 0.22315 | 326 ft | 0 kts | 43° |
| 2026-04-21 17:18 | 51.87729 | 0.22323 | 330 ft | 7 kts | 43° |
| 2026-04-21 17:18 | 51.87960 | 0.22669 | 335 ft | 84 kts | 42° |
| 2026-04-21 17:19 | 51.88556 | 0.23561 | 364 ft | 144 kts | 46° |
| 2026-04-21 17:19 | 51.89369 | 0.24763 | 784 ft | 168 kts | 45° |
| 2026-04-21 17:19 | 51.90258 | 0.26127 | 1536 ft | 183 kts | 46° |
| 2026-04-21 17:19 | 51.91206 | 0.27628 | 2311 ft | 191 kts | 50° |
| 2026-04-21 17:20 | 51.91787 | 0.29611 | 3012 ft | 207 kts | 79° |
| 2026-04-21 17:20 | 51.91698 | 0.31988 | 3314 ft | 222 kts | 92° |
| 2026-04-21 17:20 | 51.92000 | 0.34368 | 4216 ft | 217 kts | 68° |
| 2026-04-21 17:20 | 51.92562 | 0.36655 | 5042 ft | 220 kts | 70° |
| 2026-04-21 17:21 | 51.93084 | 0.39024 | 5809 ft | 225 kts | 71° |
| 2026-04-21 17:21 | 51.93578 | 0.41426 | 6743 ft | 226 kts | 72° |
| 2026-04-21 17:21 | 51.94060 | 0.43887 | 7536 ft | 230 kts | 73° |
| 2026-04-21 17:21 | 51.94533 | 0.46378 | 8368 ft | 233 kts | 74° |
| 2026-04-21 17:22 | 51.94846 | 0.48054 | 8925 ft | 236 kts | 74° |
| 2026-04-21 17:22 | 51.95484 | 0.51514 | 10057 ft | 242 kts | 74° |
| 2026-04-21 17:22 | 51.95968 | 0.54174 | 10787 ft | 253 kts | 75° |
| 2026-04-21 17:22 | 51.96474 | 0.56977 | 11202 ft | 272 kts | 75° |
| 2026-04-21 17:23 | 51.97030 | 0.60071 | 11581 ft | 293 kts | 74° |
| 2026-04-21 17:23 | 51.97605 | 0.63282 | 12060 ft | 307 kts | 74° |
| 2026-04-21 17:23 | 51.98215 | 0.66697 | 12541 ft | 322 kts | 74° |
| 2026-04-21 17:23 | 51.98849 | 0.70243 | 13137 ft | 331 kts | 74° |
| 2026-04-21 17:24 | 51.99491 | 0.73850 | 13968 ft | 334 kts | 74° |
| 2026-04-21 17:24 | 52.00139 | 0.77493 | 14690 ft | 338 kts | 74° |
| 2026-04-21 17:24 | 52.00797 | 0.81197 | 15327 ft | 344 kts | 74° |
| 2026-04-21 17:24 | 52.01460 | 0.84938 | 16103 ft | 345 kts | 73° |
| 2026-04-21 17:25 | 52.02126 | 0.88700 | 16804 ft | 350 kts | 73° |
| 2026-04-21 17:25 | 52.02805 | 0.92553 | 17344 ft | 357 kts | 73° |
| 2026-04-21 17:25 | 52.03489 | 0.96438 | 18123 ft | 357 kts | 73° |
| 2026-04-21 17:25 | 52.04176 | 1.00345 | 18673 ft | 364 kts | 73° |
| 2026-04-21 17:26 | 52.04871 | 1.04314 | 19272 ft | 365 kts | 73° |
| 2026-04-21 17:26 | 52.05565 | 1.08283 | 19888 ft | 367 kts | 73° |
| 2026-04-21 17:26 | 52.06270 | 1.12321 | 20301 ft | 374 kts | 73° |
| 2026-04-21 17:26 | 52.06969 | 1.16336 | 20935 ft | 375 kts | 73° |
| 2026-04-21 17:27 | 52.07681 | 1.20439 | 21387 ft | 381 kts | 73° |
| 2026-04-21 17:27 | 52.08403 | 1.24604 | 21938 ft | 383 kts | 72° |
| 2026-04-21 17:27 | 52.09128 | 1.28788 | 22502 ft | 386 kts | 73° |
| 2026-04-21 17:27 | 52.09862 | 1.33046 | 22916 ft | 392 kts | 72° |
| 2026-04-21 17:28 | 52.10598 | 1.37322 | 23537 ft | 394 kts | 72° |
| 2026-04-21 17:28 | 52.11340 | 1.41648 | 23947 ft | 400 kts | 73° |
| 2026-04-21 17:28 | 52.12090 | 1.46030 | 24415 ft | 402 kts | 72° |
| 2026-04-21 17:28 | 52.12845 | 1.50443 | 24839 ft | 406 kts | 73° |
| 2026-04-21 17:29 | 52.13598 | 1.54877 | 25351 ft | 407 kts | 71° |
| 2026-04-21 17:29 | 52.14359 | 1.59341 | 25738 ft | 412 kts | 72° |
| 2026-04-21 17:29 | 52.15126 | 1.63867 | 26080 ft | 417 kts | 72° |
| 2026-04-21 17:29 | 52.15897 | 1.68429 | 26524 ft | 420 kts | 72° |
| 2026-04-21 17:30 | 52.16672 | 1.73025 | 26880 ft | 424 kts | 72° |
| 2026-04-21 17:30 | 52.17457 | 1.77699 | 27275 ft | 428 kts | 72° |
| 2026-04-21 17:30 | 52.18244 | 1.82387 | 27684 ft | 431 kts | 71° |
| 2026-04-21 17:30 | 52.19037 | 1.87128 | 28038 ft | 435 kts | 71° |
| 2026-04-21 17:31 | 52.19823 | 1.91843 | 28407 ft | 438 kts | 72° |
| 2026-04-21 17:31 | 52.20624 | 1.96663 | 28776 ft | 442 kts | 71° |
| 2026-04-21 17:31 | 52.21429 | 2.01507 | 29259 ft | 442 kts | 72° |
| 2026-04-21 17:31 | 52.22228 | 2.06353 | 29684 ft | 444 kts | 72° |
| 2026-04-21 17:32 | 52.22773 | 2.09648 | 29850 ft | 448 kts | 71° |
| 2026-04-21 17:32 | 52.23845 | 2.16166 | 30365 ft | 451 kts | 71° |
| 2026-04-21 17:32 | 52.24661 | 2.21136 | 30610 ft | 455 kts | 72° |
| 2026-04-21 17:32 | 52.25477 | 2.26133 | 30924 ft | 456 kts | 71° |
| 2026-04-21 17:33 | 52.26297 | 2.31159 | 31206 ft | 459 kts | 72° |
| 2026-04-21 17:33 | 52.27116 | 2.36204 | 31629 ft | 458 kts | 72° |
| 2026-04-21 17:33 | 52.27933 | 2.41244 | 31914 ft | 461 kts | 72° |
| 2026-04-21 17:33 | 52.28751 | 2.46313 | 32251 ft | 462 kts | 72° |
| 2026-04-21 17:34 | 52.29566 | 2.51375 | 32757 ft | 459 kts | 72° |
| 2026-04-21 17:34 | 52.30371 | 2.56392 | 33264 ft | 456 kts | 72° |
| 2026-04-21 17:34 | 52.31174 | 2.61404 | 33618 ft | 456 kts | 73° |
| 2026-04-21 17:34 | 52.31978 | 2.66434 | 33961 ft | 457 kts | 71° |
| 2026-04-21 17:35 | 52.32778 | 2.71466 | 34300 ft | 458 kts | 72° |
| 2026-04-21 17:35 | 52.33567 | 2.76434 | 34595 ft | 458 kts | 72° |
| 2026-04-21 17:35 | 52.34363 | 2.81476 | 34878 ft | 458 kts | 72° |
| 2026-04-21 17:35 | 52.35161 | 2.86531 | 35182 ft | 458 kts | 73° |
| 2026-04-21 17:36 | 52.35955 | 2.91582 | 35474 ft | 458 kts | 72° |
| 2026-04-21 17:36 | 52.36747 | 2.96635 | 35764 ft | 458 kts | 73° |
| 2026-04-21 17:36 | 52.37536 | 3.01686 | 36102 ft | 457 kts | 73° |
| 2026-04-21 17:36 | 52.38057 | 3.05028 | 36332 ft | 456 kts | 72° |
| 2026-04-21 17:37 | 52.38839 | 3.10060 | 36611 ft | 457 kts | 72° |
| 2026-04-21 17:37 | 52.39748 | 3.15044 | 36848 ft | 454 kts | 63° |
| 2026-04-21 17:37 | 52.41305 | 3.19468 | 37147 ft | 446 kts | 51° |
| 2026-04-21 17:37 | 52.43157 | 3.23546 | 37369 ft | 447 kts | 50° |
| 2026-04-21 17:38 | 52.45028 | 3.27622 | 37549 ft | 448 kts | 50° |
| 2026-04-21 17:38 | 52.46916 | 3.31694 | 37802 ft | 448 kts | 49° |
| 2026-04-21 17:38 | 52.48814 | 3.35761 | 38030 ft | 449 kts | 50° |
| 2026-04-21 17:38 | 52.50711 | 3.39821 | 38321 ft | 447 kts | 50° |
| 2026-04-21 17:39 | 52.52607 | 3.43877 | 38517 ft | 449 kts | 49° |
| 2026-04-21 17:39 | 52.54503 | 3.47947 | 38772 ft | 448 kts | 50° |
| 2026-04-21 17:39 | 52.56396 | 3.52015 | 38958 ft | 449 kts | 50° |
| 2026-04-21 17:39 | 52.58287 | 3.56089 | 39198 ft | 447 kts | 50° |
| 2026-04-21 17:40 | 52.60153 | 3.60106 | 39325 ft | 447 kts | 49° |
| 2026-04-21 17:40 | 52.62044 | 3.64189 | 39333 ft | 447 kts | 50° |
| 2026-04-21 17:40 | 52.65802 | 3.72324 | 39332 ft | 446 kts | 51° |
| 2026-04-21 17:41 | 52.69555 | 3.80476 | 39330 ft | 446 kts | 51° |
| 2026-04-21 17:41 | 52.73301 | 3.88634 | 39333 ft | 445 kts | 50° |
| 2026-04-21 17:42 | 52.77034 | 3.96794 | 39332 ft | 445 kts | 50° |
| 2026-04-21 17:42 | 52.80761 | 4.04968 | 39347 ft | 445 kts | 51° |
| 2026-04-21 17:43 | 52.84477 | 4.13137 | 39335 ft | 444 kts | 51° |
| 2026-04-21 17:43 | 52.88161 | 4.21269 | 39334 ft | 444 kts | 52° |
| 2026-04-21 17:44 | 52.91869 | 4.29478 | 39341 ft | 445 kts | 51° |
| 2026-04-21 17:44 | 52.95565 | 4.37686 | 39342 ft | 443 kts | 51° |
| 2026-04-21 17:45 | 52.99239 | 4.45872 | 39348 ft | 443 kts | 51° |
| 2026-04-21 17:45 | 53.02915 | 4.54091 | 39351 ft | 443 kts | 51° |
| 2026-04-21 17:46 | 53.06582 | 4.62315 | 39358 ft | 443 kts | 51° |
| 2026-04-21 17:46 | 53.10225 | 4.70513 | 39347 ft | 443 kts | 52° |
| 2026-04-21 17:47 | 53.13886 | 4.78775 | 39345 ft | 443 kts | 52° |
| 2026-04-21 17:47 | 53.17535 | 4.87042 | 39341 ft | 443 kts | 52° |
| 2026-04-21 17:48 | 53.21179 | 4.95321 | 39342 ft | 443 kts | 52° |
| 2026-04-21 17:48 | 53.24819 | 5.03618 | 39343 ft | 443 kts | 52° |
| 2026-04-21 17:49 | 53.28450 | 5.11925 | 39354 ft | 443 kts | 52° |
| 2026-04-21 17:49 | 53.32080 | 5.20253 | 39346 ft | 443 kts | 52° |
| 2026-04-21 17:50 | 53.35681 | 5.28545 | 39358 ft | 443 kts | 52° |
| 2026-04-21 17:50 | 53.39300 | 5.36904 | 39357 ft | 444 kts | 52° |
| 2026-04-21 17:51 | 53.42914 | 5.45278 | 39377 ft | 443 kts | 53° |
| 2026-04-21 17:51 | 53.46523 | 5.53672 | 39380 ft | 444 kts | 53° |
| 2026-04-21 17:52 | 53.50128 | 5.62081 | 39381 ft | 444 kts | 53° |
| 2026-04-21 17:52 | 53.53724 | 5.70497 | 39389 ft | 443 kts | 52° |
| 2026-04-21 17:53 | 53.57314 | 5.78930 | 39376 ft | 443 kts | 52° |
| 2026-04-21 17:53 | 53.60903 | 5.87389 | 39370 ft | 444 kts | 53° |
| 2026-04-21 17:54 | 53.64460 | 5.95799 | 39363 ft | 443 kts | 53° |
| 2026-04-21 17:54 | 53.68035 | 6.04280 | 39372 ft | 443 kts | 53° |
| 2026-04-21 17:55 | 53.71604 | 6.12776 | 39368 ft | 444 kts | 53° |
| 2026-04-21 17:55 | 53.75166 | 6.21285 | 39375 ft | 443 kts | 54° |
| 2026-04-21 17:56 | 53.78723 | 6.29808 | 39381 ft | 443 kts | 54° |
| 2026-04-21 17:56 | 53.82264 | 6.38324 | 39372 ft | 442 kts | 54° |
| 2026-04-21 17:57 | 53.85775 | 6.46797 | 39367 ft | 442 kts | 54° |
| 2026-04-21 17:57 | 53.89301 | 6.55333 | 39377 ft | 442 kts | 54° |
| 2026-04-21 17:58 | 53.92823 | 6.63890 | 39365 ft | 442 kts | 54° |
| 2026-04-21 17:58 | 53.96340 | 6.72462 | 39376 ft | 442 kts | 54° |
| 2026-04-21 17:59 | 53.99851 | 6.81050 | 39362 ft | 442 kts | 54° |
| 2026-04-21 17:59 | 54.03356 | 6.89653 | 39384 ft | 442 kts | 54° |
| 2026-04-21 18:00 | 54.06844 | 6.98245 | 39366 ft | 440 kts | 54° |
| 2026-04-21 18:00 | 54.10322 | 7.06841 | 39366 ft | 440 kts | 54° |
| 2026-04-21 18:01 | 54.13771 | 7.15392 | 39375 ft | 440 kts | 54° |
| 2026-04-21 18:01 | 54.17231 | 7.24002 | 39374 ft | 440 kts | 54° |
| 2026-04-21 18:02 | 54.20693 | 7.32646 | 39373 ft | 440 kts | 55° |
| 2026-04-21 18:02 | 54.24143 | 7.41293 | 39372 ft | 440 kts | 55° |
| 2026-04-21 18:03 | 54.27587 | 7.49952 | 39371 ft | 440 kts | 55° |
| 2026-04-21 18:03 | 54.31017 | 7.58606 | 39371 ft | 439 kts | 55° |
| 2026-04-21 18:04 | 54.34439 | 7.67269 | 39371 ft | 439 kts | 55° |
| 2026-04-21 18:04 | 54.37832 | 7.75891 | 39370 ft | 439 kts | 55° |
| 2026-04-21 18:05 | 54.41244 | 7.84590 | 39375 ft | 439 kts | 55° |
| 2026-04-21 18:05 | 54.44646 | 7.93294 | 39375 ft | 439 kts | 55° |
| 2026-04-21 18:06 | 54.48043 | 8.02015 | 39372 ft | 439 kts | 55° |
| 2026-04-21 18:06 | 54.51437 | 8.10761 | 39373 ft | 440 kts | 56° |
| 2026-04-21 18:07 | 54.54832 | 8.19540 | 39379 ft | 440 kts | 56° |
| 2026-04-21 18:07 | 54.58201 | 8.28281 | 39379 ft | 440 kts | 56° |
| 2026-04-21 18:08 | 54.61586 | 8.37094 | 39374 ft | 440 kts | 56° |
| 2026-04-21 18:08 | 54.64967 | 8.45930 | 39381 ft | 440 kts | 56° |
| 2026-04-21 18:09 | 54.68335 | 8.54763 | 39379 ft | 440 kts | 56° |
| 2026-04-21 18:09 | 54.71701 | 8.63623 | 39384 ft | 440 kts | 56° |
| 2026-04-21 18:10 | 54.75027 | 8.72407 | 39388 ft | 438 kts | 56° |
| 2026-04-21 18:10 | 54.78354 | 8.81226 | 39381 ft | 437 kts | 56° |
| 2026-04-21 18:11 | 54.81673 | 8.90056 | 39376 ft | 437 kts | 57° |
| 2026-04-21 18:11 | 54.84981 | 8.98887 | 39381 ft | 436 kts | 57° |
| 2026-04-21 18:12 | 54.88287 | 9.07737 | 39376 ft | 437 kts | 57° |
| 2026-04-21 18:12 | 54.91586 | 9.16598 | 39379 ft | 437 kts | 57° |
| 2026-04-21 18:13 | 54.94860 | 9.25420 | 39380 ft | 436 kts | 57° |
| 2026-04-21 18:13 | 54.98143 | 9.34297 | 39380 ft | 435 kts | 57° |
| 2026-04-21 18:14 | 55.03038 | 9.47594 | 39377 ft | 434 kts | 57° |
| 2026-04-21 18:15 | 55.06146 | 9.56072 | 39369 ft | 434 kts | 57° |
| 2026-04-21 18:15 | 55.07151 | 9.58817 | 39361 ft | 434 kts | 57° |
| 2026-04-21 18:15 | 55.08768 | 9.63245 | 38613 ft | 435 kts | 57° |
| 2026-04-21 18:16 | 55.10354 | 9.67819 | 37593 ft | 439 kts | 65° |
| 2026-04-21 18:16 | 55.11373 | 9.72778 | 37231 ft | 430 kts | 71° |
| 2026-04-21 18:16 | 55.12296 | 9.77736 | 36584 ft | 428 kts | 71° |
| 2026-04-21 18:16 | 55.13203 | 9.82670 | 35924 ft | 426 kts | 72° |
| 2026-04-21 18:17 | 55.14095 | 9.87610 | 35278 ft | 425 kts | 72° |
| 2026-04-21 18:17 | 55.14975 | 9.92542 | 34667 ft | 423 kts | 72° |
| 2026-04-21 18:17 | 55.15835 | 9.97370 | 34022 ft | 420 kts | 72° |
| 2026-04-21 18:17 | 55.16701 | 10.02251 | 33276 ft | 418 kts | 72° |
| 2026-04-21 18:18 | 55.17560 | 10.07110 | 32502 ft | 417 kts | 72° |
| 2026-04-21 18:18 | 55.18412 | 10.11948 | 31714 ft | 416 kts | 72° |
| 2026-04-21 18:18 | 55.19268 | 10.16806 | 30968 ft | 415 kts | 72° |
| 2026-04-21 18:18 | 55.20111 | 10.21612 | 30348 ft | 410 kts | 72° |
| 2026-04-21 18:19 | 55.20947 | 10.26336 | 29947 ft | 400 kts | 71° |
| 2026-04-21 18:19 | 55.22102 | 10.30676 | 29665 ft | 388 kts | 63° |
| 2026-04-21 18:19 | 55.23276 | 10.34852 | 29349 ft | 377 kts | 65° |
| 2026-04-21 18:19 | 55.24413 | 10.39053 | 28777 ft | 386 kts | 65° |
| 2026-04-21 18:20 | 55.25554 | 10.43339 | 28181 ft | 389 kts | 66° |
| 2026-04-21 18:20 | 55.26691 | 10.47654 | 27626 ft | 389 kts | 66° |
| 2026-04-21 18:20 | 55.27804 | 10.51899 | 27064 ft | 387 kts | 66° |
| 2026-04-21 18:20 | 55.28922 | 10.56180 | 26508 ft | 383 kts | 66° |
| 2026-04-21 18:21 | 55.30027 | 10.60418 | 25954 ft | 380 kts | 66° |
| 2026-04-21 18:21 | 55.31122 | 10.64628 | 25417 ft | 377 kts | 66° |
| 2026-04-21 18:21 | 55.32205 | 10.68796 | 24864 ft | 373 kts | 66° |
| 2026-04-21 18:21 | 55.33275 | 10.72928 | 24347 ft | 370 kts | 66° |
| 2026-04-21 18:22 | 55.34337 | 10.77031 | 23811 ft | 368 kts | 66° |
| 2026-04-21 18:22 | 55.35391 | 10.81113 | 23220 ft | 365 kts | 66° |
| 2026-04-21 18:22 | 55.36434 | 10.85162 | 22699 ft | 361 kts | 66° |
| 2026-04-21 18:22 | 55.37464 | 10.89165 | 22213 ft | 357 kts | 66° |
| 2026-04-21 18:23 | 55.38482 | 10.93128 | 21715 ft | 354 kts | 66° |
| 2026-04-21 18:23 | 55.39478 | 10.97012 | 21245 ft | 351 kts | 66° |
| 2026-04-21 18:23 | 55.40476 | 11.00912 | 20782 ft | 348 kts | 66° |
| 2026-04-21 18:23 | 55.41466 | 11.04787 | 20324 ft | 345 kts | 66° |
| 2026-04-21 18:24 | 55.42454 | 11.08663 | 19857 ft | 350 kts | 66° |
| 2026-04-21 18:24 | 55.43454 | 11.12592 | 19401 ft | 354 kts | 66° |
| 2026-04-21 18:24 | 55.44121 | 11.15211 | 19111 ft | 354 kts | 66° |
| 2026-04-21 18:24 | 55.45125 | 11.19167 | 18661 ft | 352 kts | 66° |
| 2026-04-21 18:25 | 55.46121 | 11.23097 | 18148 ft | 350 kts | 66° |
| 2026-04-21 18:25 | 55.47107 | 11.26997 | 17690 ft | 346 kts | 66° |
| 2026-04-21 18:25 | 55.48082 | 11.30860 | 17251 ft | 342 kts | 66° |
| 2026-04-21 18:25 | 55.49044 | 11.34675 | 16836 ft | 339 kts | 66° |
| 2026-04-21 18:26 | 55.49995 | 11.38453 | 16412 ft | 335 kts | 66° |
| 2026-04-21 18:26 | 55.50935 | 11.42198 | 15996 ft | 332 kts | 66° |
| 2026-04-21 18:26 | 55.51864 | 11.45903 | 15589 ft | 329 kts | 66° |
| 2026-04-21 18:26 | 55.52790 | 11.49599 | 15184 ft | 330 kts | 66° |
| 2026-04-21 18:27 | 55.53724 | 11.53337 | 14788 ft | 335 kts | 66° |
| 2026-04-21 18:27 | 55.54665 | 11.57108 | 14386 ft | 336 kts | 66° |
| 2026-04-21 18:27 | 55.55606 | 11.60886 | 13956 ft | 335 kts | 66° |
| 2026-04-21 18:27 | 55.56542 | 11.64652 | 13517 ft | 334 kts | 66° |
| 2026-04-21 18:28 | 55.57471 | 11.68395 | 13101 ft | 332 kts | 66° |
| 2026-04-21 18:28 | 55.58396 | 11.72127 | 12705 ft | 330 kts | 66° |
| 2026-04-21 18:28 | 55.59314 | 11.75838 | 12383 ft | 328 kts | 66° |
| 2026-04-21 18:28 | 55.60231 | 11.79549 | 12361 ft | 329 kts | 66° |
| 2026-04-21 18:29 | 55.61135 | 11.83217 | 12376 ft | 325 kts | 66° |
| 2026-04-21 18:29 | 55.62015 | 11.86792 | 12378 ft | 310 kts | 66° |
| 2026-04-21 18:29 | 55.62854 | 11.90203 | 12379 ft | 295 kts | 66° |
| 2026-04-21 18:29 | 55.63651 | 11.93454 | 12386 ft | 280 kts | 66° |
| 2026-04-21 18:30 | 55.64410 | 11.96549 | 12393 ft | 269 kts | 66° |
| 2026-04-21 18:30 | 55.65147 | 11.99562 | 12373 ft | 265 kts | 66° |
| 2026-04-21 18:30 | 55.65876 | 12.02547 | 12127 ft | 263 kts | 66° |
| 2026-04-21 18:30 | 55.66602 | 12.05520 | 11790 ft | 262 kts | 66° |
| 2026-04-21 18:31 | 55.67323 | 12.08479 | 11462 ft | 262 kts | 66° |
| 2026-04-21 18:31 | 55.68045 | 12.11445 | 11054 ft | 264 kts | 66° |
| 2026-04-21 18:31 | 55.68779 | 12.14466 | 10537 ft | 270 kts | 66° |
| 2026-04-21 18:31 | 55.69532 | 12.17570 | 9987 ft | 277 kts | 66° |
| 2026-04-21 18:32 | 55.70300 | 12.20735 | 9435 ft | 281 kts | 66° |
| 2026-04-21 18:32 | 55.71070 | 12.23921 | 9045 ft | 281 kts | 66° |
| 2026-04-21 18:32 | 55.71836 | 12.27091 | 8756 ft | 277 kts | 66° |
| 2026-04-21 18:32 | 55.72587 | 12.30203 | 8478 ft | 272 kts | 66° |
| 2026-04-21 18:33 | 55.73322 | 12.33253 | 8231 ft | 266 kts | 66° |
| 2026-04-21 18:33 | 55.74038 | 12.36229 | 7937 ft | 265 kts | 66° |
| 2026-04-21 18:33 | 55.74763 | 12.39244 | 7637 ft | 265 kts | 66° |
| 2026-04-21 18:33 | 55.75482 | 12.42242 | 7355 ft | 264 kts | 66° |
| 2026-04-21 18:34 | 55.76200 | 12.45238 | 7079 ft | 263 kts | 66° |
| 2026-04-21 18:34 | 55.76628 | 12.47028 | 6914 ft | 261 kts | 66° |
| 2026-04-21 18:34 | 55.77152 | 12.49218 | 6685 ft | 260 kts | 66° |
| 2026-04-21 18:34 | 55.77857 | 12.52172 | 6358 ft | 260 kts | 66° |
| 2026-04-21 18:35 | 55.78333 | 12.54164 | 6043 ft | 259 kts | 65° |
| 2026-04-21 18:35 | 55.79254 | 12.58031 | 5494 ft | 253 kts | 65° |
| 2026-04-21 18:35 | 55.79931 | 12.60878 | 5186 ft | 245 kts | 65° |
| 2026-04-21 18:35 | 55.80584 | 12.63628 | 4948 ft | 237 kts | 65° |
| 2026-04-21 18:36 | 55.81212 | 12.66276 | 4704 ft | 229 kts | 65° |
| 2026-04-21 18:36 | 55.81819 | 12.68835 | 4429 ft | 226 kts | 65° |
| 2026-04-21 18:36 | 55.82421 | 12.71378 | 4253 ft | 221 kts | 65° |
| 2026-04-21 18:36 | 55.83019 | 12.73911 | 4142 ft | 222 kts | 65° |
| 2026-04-21 18:37 | 55.83620 | 12.76459 | 4041 ft | 222 kts | 65° |
| 2026-04-21 18:37 | 55.84342 | 12.78869 | 3979 ft | 220 kts | 47° |
| 2026-04-21 18:37 | 55.85560 | 12.80472 | 4008 ft | 219 kts | 32° |
| 2026-04-21 18:37 | 55.86568 | 12.82434 | 3909 ft | 215 kts | 63° |
| 2026-04-21 18:38 | 55.86777 | 12.84983 | 3801 ft | 208 kts | 98° |
| 2026-04-21 18:38 | 55.86148 | 12.87216 | 3720 ft | 200 kts | 129° |
| 2026-04-21 18:38 | 55.85139 | 12.88904 | 3695 ft | 200 kts | 144° |
| 2026-04-21 18:38 | 55.83830 | 12.89625 | 3654 ft | 200 kts | 178° |
| 2026-04-21 18:39 | 55.82431 | 12.89497 | 3684 ft | 201 kts | 185° |
| 2026-04-21 18:39 | 55.81032 | 12.89269 | 3733 ft | 202 kts | 185° |
| 2026-04-21 18:39 | 55.79634 | 12.89041 | 3541 ft | 202 kts | 185° |
| 2026-04-21 18:39 | 55.78236 | 12.88821 | 3259 ft | 199 kts | 185° |
| 2026-04-21 18:40 | 55.76882 | 12.88467 | 3020 ft | 194 kts | 200° |
| 2026-04-21 18:40 | 55.75725 | 12.87309 | 2948 ft | 191 kts | 220° |
| 2026-04-21 18:40 | 55.75053 | 12.86301 | 2970 ft | 191 kts | 224° |
| 2026-04-21 18:40 | 55.73742 | 12.84188 | 2936 ft | 193 kts | 224° |
| 2026-04-21 18:41 | 55.72741 | 12.82615 | 2683 ft | 191 kts | 224° |
| 2026-04-21 18:41 | 55.71751 | 12.81070 | 2457 ft | 186 kts | 224° |
| 2026-04-21 18:41 | 55.70798 | 12.79583 | 2221 ft | 179 kts | 224° |
| 2026-04-21 18:41 | 55.69893 | 12.78176 | 2016 ft | 164 kts | 224° |
| 2026-04-21 18:42 | 55.69092 | 12.76930 | 1823 ft | 145 kts | 224° |
| 2026-04-21 18:42 | 55.68345 | 12.75767 | 1609 ft | 142 kts | 225° |
| 2026-04-21 18:42 | 55.67599 | 12.74606 | 1410 ft | 142 kts | 225° |
| 2026-04-21 18:42 | 55.66864 | 12.73457 | 1207 ft | 140 kts | 225° |
| 2026-04-21 18:43 | 55.66147 | 12.72359 | 1034 ft | 136 kts | 224° |
| 2026-04-21 18:43 | 55.65426 | 12.71250 | 867 ft | 138 kts | 225° |
| 2026-04-21 18:43 | 55.64711 | 12.70098 | 693 ft | 139 kts | 224° |
| 2026-04-21 18:43 | 55.63970 | 12.68970 | 472 ft | 142 kts | 223° |
| 2026-04-21 18:44 | 55.63229 | 12.67815 | 264 ft | 143 kts | 220° |
| 2026-04-21 18:44 | 55.62475 | 12.66647 | 52 ft | 144 kts | 220° |
| 2026-04-21 18:44 | 55.61785 | 12.65584 | 26 ft | 113 kts | 220° |
| 2026-04-21 18:44 | 55.61368 | 12.64927 | 27 ft | 60 kts | 226° |
| 2026-04-21 18:45 | 55.61244 | 12.64545 | 28 ft | 34 kts | 251° |
| 2026-04-21 18:45 | 55.61198 | 12.64305 | 26 ft | 12 kts | 251° |
| 2026-04-21 18:45 | 55.61200 | 12.64164 | 27 ft | 12 kts | 313° |
| 2026-04-21 18:45 | 55.61278 | 12.64112 | 26 ft | 14 kts | 17° |
| 2026-04-21 18:46 | 55.61365 | 12.64208 | 26 ft | 16 kts | 34° |
| 2026-04-21 18:46 | 55.61467 | 12.64326 | 26 ft | 19 kts | 32° |
| 2026-04-21 18:46 | 55.61587 | 12.64461 | 26 ft | 22 kts | 33° |
| 2026-04-21 18:46 | 55.61720 | 12.64616 | 29 ft | 24 kts | 33° |
| 2026-04-21 18:47 | 55.61868 | 12.64786 | 30 ft | 27 kts | 33° |
| 2026-04-21 18:47 | 55.62031 | 12.64972 | 27 ft | 29 kts | 33° |
| 2026-04-21 18:47 | 55.62194 | 12.65161 | 26 ft | 11 kts | 33° |
| 2026-04-21 18:47 | 55.62276 | 12.65197 | 26 ft | 14 kts | 0° |
| 2026-04-21 18:48 | 55.62376 | 12.65203 | 26 ft | 15 kts | 357° |
| 2026-04-21 18:48 | 55.62437 | 12.65227 | 29 ft | 7 kts | 64° |
| 2026-04-21 18:48 | 55.62441 | 12.65319 | 27 ft | 10 kts | 89° |
| 2026-04-21 18:48 | 55.62442 | 12.65410 | 28 ft | 12 kts | 89° |
| 2026-04-21 18:49 | 55.62446 | 12.65502 | 26 ft | 3 kts | 63° |
| 2026-04-21 18:49 | 55.62470 | 12.65535 | 26 ft | 6 kts | 24° |
| 2026-04-21 18:49 | 55.62495 | 12.65554 | 26 ft | 3 kts | 23° |
| 2026-04-21 18:49 | 55.62518 | 12.65572 | 26 ft | 1 kts | 23° |
| 2026-04-21 18:50 | 55.62519 | 12.65573 | 26 ft | 0 kts | 23° |